createdAt,value
2023-04-11T00:01:29.667Z,99915.75
2023-04-11T00:03:57.228Z,99914.47
2023-04-11T00:06:26.136Z,99922.94
2023-04-11T00:08:53.470Z,99920.03
2023-04-11T00:11:20.971Z,99921.97
2023-04-11T00:13:48.675Z,99938.31
2023-04-11T00:16:16.842Z,99942.88
2023-04-11T00:18:45.135Z,99958.69
2023-04-11T00:21:12.037Z,99961.75
2023-04-11T00:23:39.012Z,99929.81
2023-04-11T00:26:06.353Z,99905.41
2023-04-11T00:28:33.725Z,99904.56
2023-04-11T00:31:01.847Z,99930.31
2023-04-11T00:33:28.745Z,99942.38
2023-04-11T00:35:55.693Z,99937.66
2023-04-11T00:38:22.665Z,99934.84
2023-04-11T00:40:49.593Z,99943.69
2023-04-11T00:43:16.597Z,99952.50
2023-04-11T00:45:43.789Z,99968.75
2023-04-11T00:48:11.105Z,99969.44
2023-04-11T00:50:42.127Z,99962.75
2023-04-11T00:53:12.071Z,99960.13
2023-04-11T00:55:41.057Z,99970.56
2023-04-11T00:58:08.810Z,99978.06
2023-04-11T01:00:35.793Z,99980.94
2023-04-11T01:03:02.919Z,99978.66
2023-04-11T01:05:32.138Z,99994.53
2023-04-11T01:08:00.187Z,99966.50
2023-04-11T01:10:30.870Z,99973.59
2023-04-11T01:13:00.196Z,99954.41
2023-04-11T01:15:27.394Z,99947.78
2023-04-11T01:17:55.586Z,99943.06
2023-04-11T01:20:23.093Z,99932.28
2023-04-11T01:22:50.905Z,99933.28
2023-04-11T01:25:21.755Z,99929.97
2023-04-11T01:27:49.180Z,99942.19
2023-04-11T01:30:16.718Z,99927.84
2023-04-11T01:32:43.730Z,99933.03
2023-04-11T01:35:12.609Z,99950.00
2023-04-11T01:37:39.814Z,99948.38
2023-04-11T01:40:08.058Z,99948.22
2023-04-11T01:42:36.967Z,99952.28
2023-04-11T01:45:06.993Z,99953.47
2023-04-11T01:47:33.972Z,99957.28
2023-04-11T01:50:01.510Z,99964.94
2023-04-11T01:52:28.465Z,99974.72
2023-04-11T01:54:55.767Z,99966.44
2023-04-11T01:57:23.263Z,99975.72
2023-04-11T01:59:50.345Z,99980.56
2023-04-11T02:02:17.570Z,99977.84
2023-04-11T02:04:44.670Z,99963.03
2023-04-11T02:07:12.207Z,99951.63
2023-04-11T02:09:39.115Z,99929.34
2023-04-11T02:12:06.265Z,99934.53
2023-04-11T02:14:43.020Z,99936.34
2023-04-11T02:17:10.712Z,99934.69
2023-04-11T02:19:41.138Z,99941.78
2023-04-11T02:22:11.059Z,99947.38
2023-04-11T02:24:38.330Z,99958.53
2023-04-11T02:27:05.490Z,99966.44
2023-04-11T02:29:32.771Z,99970.84
2023-04-11T02:32:00.088Z,99959.97
2023-04-11T02:34:27.203Z,99965.31
2023-04-11T02:36:54.094Z,99966.38
2023-04-11T02:39:26.746Z,99982.22
2023-04-11T02:41:53.829Z,99978.63
2023-04-11T02:44:22.547Z,99984.66
2023-04-11T02:46:49.700Z,99978.47
2023-04-11T02:49:16.720Z,99989.56
2023-04-11T02:51:43.716Z,99987.66
2023-04-11T02:54:11.751Z,99982.78
2023-04-11T02:56:39.047Z,99979.44
2023-04-11T02:59:07.018Z,99974.41
2023-04-11T03:01:34.268Z,99982.56
2023-04-11T03:04:01.516Z,99981.75
2023-04-11T03:06:29.252Z,99992.38
2023-04-11T03:08:56.573Z,99999.72
2023-04-11T03:11:23.732Z,100002.28
2023-04-11T03:13:50.863Z,99999.03
2023-04-11T03:16:17.891Z,100012.13
2023-04-11T03:18:44.878Z,100005.53
2023-04-11T03:21:12.365Z,100010.06
2023-04-11T03:23:39.709Z,100010.81
2023-04-11T03:26:07.435Z,100026.44
2023-04-11T03:28:34.537Z,100031.28
2023-04-11T03:31:01.631Z,100031.09
2023-04-11T03:33:28.592Z,100026.50
2023-04-11T03:35:56.741Z,100023.16
2023-04-11T03:38:23.824Z,100027.59
2023-04-11T03:40:50.766Z,100013.44
2023-04-11T03:43:18.077Z,100011.19
2023-04-11T03:45:45.119Z,100003.22
2023-04-11T03:48:12.209Z,100004.34
2023-04-11T03:50:39.454Z,99997.66
2023-04-11T03:53:07.160Z,99997.81
2023-04-11T03:55:34.123Z,100001.31
2023-04-11T03:58:01.131Z,100002.38
2023-04-11T04:00:29.084Z,99997.00
2023-04-11T04:02:56.236Z,100005.94
2023-04-11T04:05:23.415Z,100004.84
2023-04-11T04:07:50.794Z,100021.66
2023-04-11T04:10:17.847Z,100015.34
2023-04-11T04:12:44.718Z,99997.25
2023-04-11T04:15:14.647Z,100002.16
2023-04-11T04:17:44.647Z,99995.84
2023-04-11T04:20:12.329Z,99992.88
2023-04-11T04:22:39.496Z,100001.13
2023-04-11T04:25:07.132Z,100009.91
2023-04-11T04:27:34.084Z,99987.75
2023-04-11T04:30:03.961Z,99966.63
2023-04-11T04:32:31.598Z,99970.13
2023-04-11T04:34:58.969Z,99981.25
2023-04-11T04:37:27.255Z,99977.16
2023-04-11T04:39:56.963Z,99987.84
2023-04-11T04:42:26.036Z,100008.13
2023-04-11T04:44:54.993Z,100016.06
2023-04-11T04:47:31.479Z,100016.63
2023-04-11T04:49:59.051Z,100015.81
2023-04-11T04:52:27.481Z,100021.00
2023-04-11T04:54:58.062Z,100019.13
2023-04-11T04:57:29.683Z,100024.31
2023-04-11T04:59:58.350Z,100021.00
2023-04-11T05:02:26.844Z,100026.88
2023-04-11T05:04:57.110Z,100037.88
2023-04-11T05:07:24.155Z,100044.69
2023-04-11T05:09:51.118Z,100030.44
2023-04-11T05:12:20.227Z,100056.03
2023-04-11T05:14:47.603Z,100050.69
2023-04-11T05:17:14.645Z,100066.44
2023-04-11T05:19:41.726Z,100083.34
2023-04-11T05:22:08.700Z,100078.84
2023-04-11T05:24:39.424Z,100090.31
2023-04-11T05:27:06.495Z,100100.88
2023-04-11T05:29:33.389Z,100107.25
2023-04-11T05:32:00.379Z,100117.00
2023-04-11T05:34:31.723Z,100117.47
2023-04-11T05:36:58.858Z,100114.50
2023-04-11T05:39:25.821Z,100103.81
2023-04-11T05:41:52.992Z,100118.59
2023-04-11T05:44:19.942Z,100127.34
2023-04-11T05:46:46.911Z,100132.97
2023-04-11T05:49:13.893Z,100134.19
2023-04-11T05:51:41.006Z,100130.31
2023-04-11T05:54:07.958Z,100132.25
2023-04-11T05:56:35.310Z,100139.59
2023-04-11T05:59:03.838Z,100143.03
2023-04-11T06:01:30.774Z,100142.59
2023-04-11T06:03:58.151Z,100149.84
2023-04-11T06:06:25.839Z,100149.56
2023-04-11T06:08:52.922Z,100148.69
2023-04-11T06:11:19.834Z,100138.75
2023-04-11T06:13:46.851Z,100149.03
2023-04-11T06:16:13.907Z,100154.50
2023-04-11T06:18:40.925Z,100161.06
2023-04-11T06:21:07.970Z,100162.81
2023-04-11T06:23:34.877Z,100159.91
2023-04-11T06:26:01.827Z,100164.09
2023-04-11T06:28:30.009Z,100160.88
2023-04-11T06:30:56.982Z,100147.16
2023-04-11T06:33:24.051Z,100149.88
2023-04-11T06:35:51.182Z,100163.13
2023-04-11T06:38:18.093Z,100168.69
2023-04-11T06:40:45.264Z,100162.31
2023-04-11T06:43:12.182Z,100167.41
2023-04-11T06:45:39.189Z,100181.03
2023-04-11T06:48:06.560Z,100191.22
2023-04-11T06:50:33.584Z,100184.59
2023-04-11T06:53:00.914Z,100184.72
2023-04-11T06:55:28.103Z,100190.44
2023-04-11T06:57:55.085Z,100208.97
2023-04-11T07:00:22.198Z,100202.66
2023-04-11T07:02:49.583Z,100212.34
2023-04-11T07:05:16.897Z,100208.00
2023-04-11T07:07:43.828Z,100207.69
2023-04-11T07:10:11.142Z,100202.94
2023-04-11T07:12:38.023Z,100197.09
2023-04-11T07:15:05.527Z,100206.22
2023-04-11T07:17:32.525Z,100193.31
2023-04-11T07:19:59.452Z,100201.47
2023-04-11T07:22:26.488Z,100203.25
2023-04-11T07:24:55.358Z,100202.44
2023-04-11T07:27:23.340Z,100195.81
2023-04-11T07:29:50.676Z,100188.25
2023-04-11T07:32:17.650Z,100178.19
2023-04-11T07:34:45.913Z,100187.72
2023-04-11T07:37:13.161Z,100196.63
2023-04-11T07:39:40.798Z,100193.88
2023-04-11T07:42:08.016Z,100193.00
2023-04-11T07:44:34.952Z,100200.88
2023-04-11T07:47:01.909Z,100196.09
2023-04-11T07:49:28.919Z,100207.13
2023-04-11T07:51:55.795Z,100209.25
2023-04-11T07:54:25.178Z,100206.56
2023-04-11T07:56:52.316Z,100198.00
2023-04-11T07:59:19.216Z,100200.84
2023-04-11T08:01:46.456Z,100193.38
2023-04-11T08:04:13.860Z,100187.41
2023-04-11T08:06:41.378Z,100197.75
2023-04-11T08:09:08.302Z,100201.78
2023-04-11T08:11:36.435Z,100197.44
2023-04-11T08:14:04.412Z,100198.25
2023-04-11T08:16:31.399Z,100188.22
2023-04-11T08:18:59.123Z,100190.25
2023-04-11T08:21:26.507Z,100189.31
2023-04-11T08:23:53.569Z,100190.88
2023-04-11T08:26:21.143Z,100184.09
2023-04-11T08:28:48.313Z,100180.84
2023-04-11T08:31:15.541Z,100181.72
2023-04-11T08:33:42.616Z,100178.00
2023-04-11T08:36:10.829Z,100172.69
2023-04-11T08:38:39.647Z,100170.47
2023-04-11T08:41:06.896Z,100173.44
2023-04-11T08:43:35.317Z,100170.03
2023-04-11T08:46:07.896Z,100176.81
2023-04-11T08:48:34.968Z,100181.16
2023-04-11T08:51:02.389Z,100167.19
2023-04-11T08:53:30.451Z,100164.75
2023-04-11T08:55:59.933Z,100161.81
2023-04-11T08:58:26.973Z,100168.09
2023-04-11T09:00:54.001Z,100170.34
2023-04-11T09:03:21.186Z,100191.91
2023-04-11T09:05:48.256Z,100173.25
2023-04-11T09:08:17.125Z,100181.25
2023-04-11T09:10:46.127Z,100182.84
2023-04-11T09:13:25.683Z,100176.97
2023-04-11T09:16:09.891Z,100177.56
2023-04-11T09:18:40.610Z,100171.66
2023-04-11T09:21:11.500Z,100179.47
2023-04-11T09:23:38.785Z,100171.59
2023-04-11T09:26:07.731Z,100161.00
2023-04-11T09:28:52.819Z,100171.19
2023-04-11T09:31:21.330Z,100170.91
2023-04-11T09:33:59.711Z,100152.94
2023-04-11T09:36:27.310Z,100139.91
2023-04-11T09:38:54.593Z,100146.09
2023-04-11T09:41:33.537Z,100149.66
2023-04-11T09:44:01.261Z,100149.66
2023-04-11T09:46:29.404Z,100152.56
2023-04-11T09:48:56.810Z,100163.19
2023-04-11T09:51:35.986Z,100172.97
2023-04-11T09:54:05.196Z,100183.81
2023-04-11T09:56:37.152Z,100271.69
2023-04-11T09:59:05.230Z,100303.88
2023-04-11T10:01:32.540Z,100305.66
2023-04-11T10:04:01.321Z,100313.69
2023-04-11T10:06:34.333Z,100314.53
2023-04-11T10:09:12.557Z,100299.19
2023-04-11T10:11:44.624Z,100280.41
2023-04-11T10:14:39.691Z,100246.75
2023-04-11T10:17:22.090Z,100250.84
2023-04-11T10:19:56.467Z,100240.91
2023-04-11T10:22:50.086Z,100237.78
2023-04-11T10:25:26.932Z,100232.59
2023-04-11T10:28:01.413Z,100236.56
2023-04-11T10:30:40.869Z,100231.50
2023-04-11T10:33:21.084Z,100211.22
2023-04-11T10:36:17.391Z,100196.75
2023-04-11T10:38:48.569Z,100170.88
2023-04-11T10:41:36.100Z,100164.03
2023-04-11T10:44:21.427Z,100177.69
2023-04-11T10:46:54.708Z,100239.59
2023-04-11T10:49:36.533Z,100337.97
2023-04-11T10:52:23.663Z,100350.28
2023-04-11T10:54:54.512Z,100349.00
2023-04-11T10:57:22.875Z,100340.09
2023-04-11T10:59:50.043Z,100350.59
2023-04-11T11:02:19.894Z,100343.09
2023-04-11T11:04:47.457Z,100317.09
2023-04-11T11:07:18.769Z,100304.22
2023-04-11T11:09:51.262Z,100311.88
2023-04-11T11:12:18.602Z,100304.19
2023-04-11T11:14:47.297Z,100282.28
2023-04-11T11:17:16.543Z,100268.72
2023-04-11T11:19:45.289Z,100275.81
2023-04-11T11:22:25.754Z,100278.38
2023-04-11T11:24:53.299Z,100268.25
2023-04-11T11:27:24.976Z,100252.09
2023-04-11T11:29:53.091Z,100239.50
2023-04-11T11:32:29.754Z,100238.19
2023-04-11T11:34:57.730Z,100224.47
2023-04-11T11:37:25.338Z,100204.91
2023-04-11T11:39:52.445Z,100191.50
2023-04-11T11:42:19.539Z,100183.84
2023-04-11T11:44:46.585Z,100190.69
2023-04-11T11:47:17.060Z,100181.69
2023-04-11T11:49:53.255Z,100183.03
2023-04-11T11:52:36.773Z,100182.84
2023-04-11T11:55:11.349Z,100164.16
2023-04-11T11:57:50.509Z,100180.22
2023-04-11T12:00:28.973Z,100175.00
2023-04-11T12:02:59.329Z,100161.25
2023-04-11T12:05:30.456Z,100156.53
2023-04-11T12:08:00.370Z,100152.75
2023-04-11T12:10:43.202Z,100163.41
2023-04-11T12:13:23.425Z,100173.88
2023-04-11T12:15:54.750Z,100210.69
2023-04-11T12:18:24.372Z,100259.16
2023-04-11T12:20:52.123Z,100297.97
2023-04-11T12:23:19.289Z,100271.44
2023-04-11T12:25:47.081Z,100245.97
2023-04-11T12:28:14.489Z,100246.97
2023-04-11T12:30:41.692Z,100234.81
2023-04-11T12:33:08.905Z,100245.75
2023-04-11T12:35:35.911Z,100262.44
2023-04-11T12:38:04.125Z,100282.09
2023-04-11T12:40:31.101Z,100286.66
2023-04-11T12:42:58.083Z,100289.09
2023-04-11T12:45:26.166Z,100287.00
2023-04-11T12:47:53.553Z,100281.06
2023-04-11T12:50:23.683Z,100252.81
2023-04-11T12:52:51.214Z,100253.25
2023-04-11T12:55:18.359Z,100242.69
2023-04-11T12:57:45.613Z,100238.97
2023-04-11T13:00:13.659Z,100237.59
2023-04-11T13:02:44.505Z,100243.28
2023-04-11T13:05:15.053Z,100221.88
2023-04-11T13:07:45.517Z,100209.31
2023-04-11T13:10:13.825Z,100200.13
2023-04-11T13:12:44.291Z,100197.81
2023-04-11T13:15:13.600Z,100179.69
2023-04-11T13:17:40.791Z,100167.44
2023-04-11T13:20:10.574Z,100165.28
2023-04-11T13:22:39.488Z,100160.03
2023-04-11T13:25:07.245Z,100150.91
2023-04-11T13:27:35.634Z,100163.84
2023-04-11T13:30:04.824Z,100151.56
2023-04-11T13:32:32.249Z,100140.59
2023-04-11T13:34:59.354Z,100131.81
2023-04-11T13:37:26.430Z,100117.16
2023-04-11T13:39:53.347Z,100105.50
2023-04-11T13:42:21.815Z,100118.06
2023-04-11T13:44:48.805Z,100109.03
2023-04-11T13:47:15.705Z,100100.56
2023-04-11T13:49:42.618Z,100089.94
2023-04-11T13:52:09.614Z,100085.81
2023-04-11T13:54:38.048Z,100086.03
2023-04-11T13:57:07.784Z,100080.75
2023-04-11T13:59:35.522Z,100073.44
2023-04-11T14:02:02.738Z,100076.53
2023-04-11T14:04:29.940Z,100067.78
2023-04-11T14:06:57.248Z,100081.13
2023-04-11T14:09:26.278Z,100098.03
2023-04-11T14:11:53.354Z,100073.69
2023-04-11T14:14:21.836Z,100076.44
2023-04-11T14:16:48.933Z,100067.22
2023-04-11T14:19:16.351Z,100074.16
2023-04-11T14:21:43.310Z,100076.56
2023-04-11T14:24:10.368Z,100079.31
2023-04-11T14:26:37.343Z,100069.88
2023-04-11T14:29:04.732Z,100069.97
2023-04-11T14:31:31.929Z,100057.66
2023-04-11T14:33:59.252Z,100071.41
2023-04-11T14:36:27.609Z,100074.41
2023-04-11T14:38:54.561Z,100077.22
2023-04-11T14:41:21.650Z,100066.13
2023-04-11T14:43:48.641Z,100068.94
2023-04-11T14:46:15.927Z,100055.84
2023-04-11T14:48:42.947Z,100060.47
2023-04-11T14:51:10.003Z,100056.13
2023-04-11T14:53:37.266Z,100060.72
2023-04-11T14:56:06.480Z,100055.72
2023-04-11T14:58:33.950Z,100053.84
2023-04-11T15:01:02.143Z,100040.56
2023-04-11T15:03:29.519Z,100036.59
2023-04-11T15:05:56.654Z,100044.38
2023-04-11T15:08:23.691Z,100023.19
2023-04-11T15:10:54.072Z,100016.16
2023-04-11T15:13:22.474Z,100015.53
2023-04-11T15:15:49.467Z,100011.47
2023-04-11T15:18:23.159Z,100016.09
2023-04-11T15:20:50.883Z,100010.91
2023-04-11T15:23:19.322Z,100005.25
2023-04-11T15:25:52.490Z,100001.00
2023-04-11T15:28:21.896Z,100001.50
2023-04-11T15:30:52.816Z,100003.31
2023-04-11T15:33:22.079Z,100002.81
2023-04-11T15:35:49.032Z,99993.94
2023-04-11T15:38:16.437Z,99998.00
2023-04-11T15:40:43.948Z,100007.31
2023-04-11T15:43:11.175Z,99991.50
2023-04-11T15:45:44.455Z,99985.72
2023-04-11T15:48:13.227Z,99990.69
2023-04-11T15:50:42.397Z,99990.53
2023-04-11T15:53:09.941Z,99992.03
2023-04-11T15:55:42.081Z,99988.44
2023-04-11T15:58:09.565Z,99992.34
2023-04-11T16:00:38.129Z,99986.63
2023-04-11T16:03:06.292Z,99977.59
2023-04-11T16:05:34.576Z,99972.50
2023-04-11T16:08:02.077Z,99979.00
2023-04-11T16:10:30.273Z,99981.97
2023-04-11T16:12:57.281Z,99977.63
2023-04-11T16:15:24.228Z,99974.56
2023-04-11T16:17:51.365Z,99973.66
2023-04-11T16:20:21.182Z,99975.78
2023-04-11T16:22:48.475Z,99979.97
2023-04-11T16:25:19.445Z,99970.41
2023-04-11T16:27:47.483Z,99975.56
2023-04-11T16:30:16.856Z,99981.16
2023-04-11T16:32:44.207Z,99975.38
2023-04-11T16:35:11.251Z,99976.69
2023-04-11T16:37:38.225Z,99981.13
2023-04-11T16:40:11.091Z,99974.25
2023-04-11T16:42:39.220Z,99982.13
2023-04-11T16:45:08.908Z,99993.34
2023-04-11T16:47:35.977Z,99987.34
2023-04-11T16:50:03.840Z,99982.19
2023-04-11T16:52:31.213Z,99991.09
2023-04-11T16:54:58.122Z,99988.47
2023-04-11T16:57:25.698Z,99993.06
2023-04-11T16:59:53.163Z,99993.91
2023-04-11T17:02:20.370Z,99992.47
2023-04-11T17:04:47.407Z,99993.09
2023-04-11T17:07:14.516Z,99986.50
2023-04-11T17:09:41.544Z,99990.66
2023-04-11T17:12:08.427Z,100004.06
2023-04-11T17:14:36.548Z,100002.19
2023-04-11T17:17:03.797Z,100000.56
2023-04-11T17:19:31.679Z,100003.56
2023-04-11T17:21:58.616Z,99998.59
2023-04-11T17:24:25.779Z,100002.84
2023-04-11T17:26:54.225Z,100007.56
2023-04-11T17:29:21.350Z,99996.88
2023-04-11T17:31:48.229Z,99991.88
2023-04-11T17:34:15.208Z,100018.31
2023-04-11T17:36:43.026Z,100012.41
2023-04-11T17:39:17.102Z,100005.59
2023-04-11T17:41:45.659Z,99999.28
2023-04-11T17:44:13.432Z,100000.56
2023-04-11T17:46:40.475Z,100001.34
2023-04-11T17:49:07.468Z,99998.22
2023-04-11T17:51:34.733Z,100005.97
2023-04-11T17:54:02.224Z,100006.31
2023-04-11T17:56:29.318Z,100005.97
2023-04-11T17:58:56.524Z,100012.84
2023-04-11T18:01:24.843Z,100016.22
2023-04-11T18:03:52.060Z,100014.84
2023-04-11T18:06:19.226Z,100012.72
2023-04-11T18:11:16.423Z,100007.72
2023-04-11T18:13:43.880Z,100009.00
2023-04-11T18:16:11.555Z,100006.72
2023-04-11T18:18:38.633Z,100018.00
2023-04-11T18:21:07.839Z,100016.66
2023-04-11T18:23:36.141Z,100020.94
2023-04-11T18:26:03.093Z,100032.19
2023-04-11T18:28:30.452Z,100034.16
2023-04-11T18:30:57.458Z,100028.75
2023-04-11T18:33:24.543Z,100034.97
2023-04-11T18:35:51.962Z,100038.09
2023-04-11T18:38:19.158Z,100045.59
2023-04-11T18:40:46.465Z,100039.72
2023-04-11T18:43:13.586Z,100035.81
2023-04-11T18:45:42.318Z,100034.19
2023-04-11T18:48:10.362Z,100028.31
2023-04-11T18:50:39.061Z,100038.41
2023-04-11T18:53:10.218Z,100045.56
2023-04-11T18:55:40.064Z,100066.41
2023-04-11T18:58:09.226Z,100064.94
2023-04-11T19:00:36.763Z,100068.06
2023-04-11T19:03:05.180Z,100063.81
2023-04-11T19:05:33.420Z,100067.84
2023-04-11T19:08:00.783Z,100073.19
2023-04-11T19:10:27.760Z,100068.13
2023-04-11T19:12:54.728Z,100065.84
2023-04-11T19:15:21.651Z,100068.91
2023-04-11T19:17:48.747Z,100062.91
2023-04-11T19:20:16.608Z,100063.03
2023-04-11T19:22:43.812Z,100060.41
2023-04-11T19:25:12.318Z,100061.88
2023-04-11T19:27:41.970Z,100066.84
2023-04-11T19:30:13.316Z,100077.84
2023-04-11T19:32:43.388Z,100078.66
2023-04-11T19:35:11.733Z,100056.69
2023-04-11T19:37:39.188Z,100055.56
2023-04-11T19:40:07.725Z,100050.03
2023-04-11T19:42:39.784Z,100054.72
2023-04-11T19:45:12.001Z,100055.28
2023-04-11T19:47:40.865Z,100065.00
2023-04-11T19:50:14.218Z,100069.38
2023-04-11T19:52:42.672Z,100069.81
2023-04-11T19:55:13.025Z,100068.09
2023-04-11T19:57:41.098Z,100061.50
2023-04-11T20:00:12.479Z,100066.31
2023-04-11T20:02:46.038Z,100061.44
2023-04-11T20:05:19.272Z,100057.41
2023-04-11T20:07:46.791Z,100055.47
2023-04-11T20:10:15.786Z,100054.13
2023-04-11T20:12:42.733Z,100051.63
2023-04-11T20:15:10.687Z,100054.22
2023-04-11T20:17:37.634Z,100040.31
2023-04-11T20:20:06.779Z,100028.13
2023-04-11T20:22:33.943Z,100022.88
2023-04-11T20:25:00.991Z,100013.44
2023-04-11T20:27:28.250Z,100006.59
2023-04-11T20:29:56.715Z,100003.59
2023-04-11T20:32:23.768Z,99998.56
2023-04-11T20:34:50.873Z,99996.78
2023-04-11T20:37:19.361Z,99998.19
2023-04-11T20:39:46.361Z,99992.28
2023-04-11T20:42:13.786Z,99985.56
2023-04-11T20:44:42.564Z,99990.50
2023-04-11T20:47:09.734Z,99989.50
2023-04-11T20:49:36.672Z,99988.81
2023-04-11T20:52:03.752Z,99995.50
2023-04-11T20:54:30.803Z,99986.53
2023-04-11T20:56:57.671Z,99991.13
2023-04-11T20:59:24.697Z,99987.81
2023-04-11T21:01:53.614Z,99982.84
2023-04-11T21:04:21.973Z,99969.31
2023-04-11T21:06:50.628Z,99965.59
2023-04-11T21:09:18.491Z,99953.81
2023-04-11T21:11:45.672Z,99943.13
2023-04-11T21:14:12.584Z,99930.75
2023-04-11T21:16:39.896Z,99923.25
2023-04-11T21:19:06.837Z,99922.56
2023-04-11T21:21:34.111Z,99907.78
2023-04-11T21:24:01.859Z,99908.78
2023-04-11T21:26:28.788Z,99901.34
2023-04-11T21:28:55.998Z,99904.41
2023-04-11T21:31:22.977Z,99891.41
2023-04-11T21:33:49.993Z,99893.63
2023-04-11T21:36:17.038Z,99888.91
2023-04-11T21:38:43.914Z,99884.06
2023-04-11T21:41:10.900Z,99869.41
2023-04-11T21:43:37.840Z,99861.28
2023-04-11T21:46:05.312Z,99862.84
2023-04-11T21:48:32.279Z,99856.16
2023-04-11T21:50:59.362Z,99854.53
2023-04-11T21:53:26.758Z,99855.91
2023-04-11T21:55:53.697Z,99849.13
2023-04-11T21:58:28.986Z,99847.06
2023-04-11T22:00:56.560Z,99839.81
2023-04-11T22:03:24.165Z,99837.34
2023-04-11T22:05:52.245Z,99829.41
2023-04-11T22:08:22.192Z,99827.72
2023-04-11T22:10:50.726Z,99829.69
2023-04-11T22:13:19.480Z,99830.66
2023-04-11T22:15:48.842Z,99823.63
2023-04-11T22:18:15.931Z,99817.16
2023-04-11T22:20:44.237Z,99814.53
2023-04-11T22:23:12.791Z,99798.13
2023-04-11T22:25:43.790Z,99798.94
2023-04-11T22:28:22.118Z,99796.56
2023-04-11T22:30:49.404Z,99795.84
2023-04-11T22:33:16.782Z,99790.81
2023-04-11T22:35:49.520Z,99795.69
2023-04-11T22:38:16.782Z,99788.84
2023-04-11T22:40:43.835Z,99789.84
2023-04-11T22:43:10.903Z,99786.59
2023-04-11T22:45:37.957Z,99788.53
2023-04-11T22:48:06.216Z,99788.25
2023-04-11T22:50:38.881Z,99786.84
2023-04-11T22:53:09.264Z,99789.28
2023-04-11T22:55:36.435Z,99782.25
2023-04-11T22:58:04.178Z,99795.53
2023-04-11T23:00:38.003Z,99795.84
2023-04-11T23:03:07.255Z,99801.38
2023-04-11T23:05:37.720Z,99835.06
2023-04-11T23:08:04.911Z,99824.44
2023-04-11T23:10:32.243Z,99821.34
2023-04-11T23:12:59.569Z,99788.47
2023-04-11T23:15:27.178Z,99794.97
2023-04-11T23:17:54.587Z,99784.69
2023-04-11T23:20:22.045Z,99786.22
2023-04-11T23:22:48.905Z,99785.50
2023-04-11T23:25:15.788Z,99776.97
2023-04-11T23:27:44.556Z,99783.13
2023-04-11T23:30:12.506Z,99779.44
2023-04-11T23:32:40.466Z,99777.41
2023-04-11T23:35:08.404Z,99776.94
2023-04-11T23:37:35.341Z,99776.00
2023-04-11T23:40:11.091Z,99776.44
2023-04-11T23:42:39.081Z,99785.88
2023-04-11T23:45:07.541Z,99784.25
2023-04-11T23:47:35.094Z,99777.91
2023-04-11T23:50:03.877Z,99766.59
2023-04-11T23:52:31.130Z,99765.59
2023-04-11T23:54:58.488Z,99771.72
2023-04-11T23:57:25.559Z,99774.88
2023-04-11T23:59:52.456Z,99781.34
